createdAt,value
2023-05-24T00:02:02.655Z,32.57
2023-05-24T00:04:38.236Z,32.42
2023-05-24T00:07:14.360Z,31.68
2023-05-24T00:09:49.991Z,31.73
2023-05-24T00:12:36.934Z,31.81
2023-05-24T00:15:07.463Z,31.70
2023-05-24T00:17:43.152Z,31.84
2023-05-24T00:20:20.978Z,31.97
2023-05-24T00:22:59.885Z,31.92
2023-05-24T00:25:36.213Z,31.47
2023-05-24T00:28:13.612Z,31.51
2023-05-24T00:30:52.565Z,32.03
2023-05-24T00:33:36.630Z,32.01
2023-05-24T00:36:14.656Z,31.07
2023-05-24T00:39:03.677Z,31.68
2023-05-24T00:41:37.213Z,32.06
2023-05-24T00:44:11.245Z,32.27
2023-05-24T00:49:42.383Z,31.97
2023-05-24T00:52:18.206Z,32.12
2023-05-24T00:54:51.326Z,32.29
2023-05-24T00:57:27.674Z,32.68
2023-05-24T01:00:10.080Z,32.66
2023-05-24T01:02:45.738Z,32.53
2023-05-24T01:05:24.738Z,31.99
2023-05-24T01:08:13.926Z,32.23
2023-05-24T01:10:57.387Z,31.55
2023-05-24T01:13:46.193Z,31.81
2023-05-24T01:16:36.155Z,32.15
2023-05-24T01:19:33.259Z,32.02
2023-05-24T01:22:58.140Z,32.59
2023-05-24T01:26:00.163Z,32.55
2023-05-24T01:28:47.785Z,32.90
2023-05-24T01:31:18.433Z,32.62
2023-05-24T01:34:09.609Z,31.79
2023-05-24T01:36:47.665Z,31.96
2023-05-24T01:39:34.750Z,32.16
2023-05-24T01:42:42.383Z,31.88
2023-05-24T01:45:34.345Z,31.82
2023-05-24T01:48:22.928Z,32.22
2023-05-24T01:51:01.899Z,32.11
2023-05-24T01:53:51.082Z,31.74
2023-05-24T01:56:29.565Z,30.44
2023-05-24T01:59:04.107Z,30.58
2023-05-24T02:01:41.372Z,30.86
2023-05-24T02:04:18.288Z,30.88
2023-05-24T02:06:57.421Z,31.20
2023-05-24T02:09:37.392Z,31.00
2023-05-24T02:12:17.900Z,30.92
2023-05-24T02:14:57.474Z,30.87
2023-05-24T02:17:33.321Z,31.53
2023-05-24T02:20:09.477Z,31.01
2023-05-24T02:22:44.864Z,30.79
2023-05-24T02:25:21.376Z,30.86
2023-05-24T02:27:57.515Z,31.16
2023-05-24T02:30:38.712Z,31.19
2023-05-24T02:33:23.660Z,30.96
2023-05-24T02:35:50.991Z,30.98
2023-05-24T02:38:37.061Z,31.26
2023-05-24T02:41:31.865Z,31.31
2023-05-24T02:44:04.647Z,31.51
2023-05-24T02:46:42.583Z,31.04
2023-05-24T02:49:24.589Z,31.42
2023-05-24T02:51:57.281Z,31.72
2023-05-24T02:54:42.421Z,31.94
2023-05-24T02:57:23.869Z,32.10
2023-05-24T03:00:02.809Z,31.90
2023-05-24T03:02:49.708Z,32.06
2023-05-24T03:05:29.567Z,32.38
2023-05-24T03:08:15.306Z,32.31
2023-05-24T03:11:00.457Z,31.96
2023-05-24T03:13:34.311Z,31.66
2023-05-24T03:16:10.812Z,31.85
2023-05-24T03:18:52.351Z,32.67
2023-05-24T03:21:25.520Z,31.43
2023-05-24T03:24:15.974Z,30.77
2023-05-24T03:26:49.282Z,30.58
2023-05-24T03:29:25.784Z,31.20
2023-05-24T03:32:03.168Z,32.31
2023-05-24T03:34:45.151Z,31.74
2023-05-24T03:37:45.799Z,31.48
2023-05-24T03:40:25.925Z,31.86
2023-05-24T03:43:11.148Z,32.45
2023-05-24T03:46:09.859Z,31.78
2023-05-24T03:48:49.212Z,32.46
2023-05-24T03:51:36.379Z,32.85
2023-05-24T03:54:09.699Z,32.60
2023-05-24T03:56:45.187Z,32.32
2023-05-24T03:59:24.983Z,31.87
2023-05-24T04:02:06.425Z,31.98
2023-05-24T04:04:44.549Z,32.70
2023-05-24T04:07:26.328Z,32.96
2023-05-24T04:09:56.454Z,32.82
2023-05-24T04:12:37.086Z,32.72
2023-05-24T04:15:15.456Z,33.10
2023-05-24T04:17:55.090Z,31.55
2023-05-24T04:20:34.806Z,32.26
2023-05-24T04:23:11.559Z,32.20
2023-05-24T04:25:59.313Z,32.58
2023-05-24T04:28:50.200Z,32.82
2023-05-24T04:31:24.943Z,33.03
2023-05-24T04:34:10.119Z,33.67
2023-05-24T04:36:47.783Z,34.01
2023-05-24T04:39:35.301Z,33.92
2023-05-24T04:42:16.933Z,34.15
2023-05-24T04:45:02.079Z,34.39
2023-05-24T04:47:46.972Z,34.71
2023-05-24T04:50:29.291Z,34.55
2023-05-24T04:53:07.625Z,34.82
2023-05-24T04:55:56.095Z,34.86
2023-05-24T04:58:37.042Z,35.01
2023-05-24T05:01:14.929Z,34.43
2023-05-24T05:04:06.698Z,34.26
2023-05-24T05:06:48.579Z,34.35
2023-05-24T05:09:24.216Z,34.24
2023-05-24T05:12:00.004Z,33.86
2023-05-24T05:14:39.756Z,33.44
2023-05-24T05:17:19.322Z,33.13
2023-05-24T05:20:22.312Z,32.67
2023-05-24T05:23:19.029Z,34.12
2023-05-24T05:26:03.290Z,33.96
2023-05-24T05:28:42.362Z,32.78
2023-05-24T05:31:23.979Z,32.81
2023-05-24T05:33:56.926Z,33.74
2023-05-24T05:36:42.648Z,34.24
2023-05-24T05:39:31.939Z,33.81
2023-05-24T05:42:20.606Z,34.53
2023-05-24T05:44:58.137Z,33.91
2023-05-24T05:47:42.763Z,35.09
2023-05-24T05:50:18.289Z,34.97
2023-05-24T05:53:02.483Z,34.53
2023-05-24T05:55:55.297Z,35.43
2023-05-24T05:58:36.643Z,34.98
2023-05-24T06:01:17.563Z,33.75
2023-05-24T06:03:57.377Z,34.30
2023-05-24T06:06:37.854Z,33.77
2023-05-24T06:09:16.307Z,32.42
2023-05-24T06:11:55.073Z,31.95
2023-05-24T06:14:36.245Z,32.85
2023-05-24T06:17:17.848Z,34.06
2023-05-24T06:19:57.343Z,34.18
2023-05-24T06:22:43.427Z,33.25
2023-05-24T06:25:22.716Z,32.84
2023-05-24T06:28:08.989Z,33.97
2023-05-24T06:30:50.320Z,32.46
2023-05-24T06:33:29.876Z,33.44
2023-05-24T06:36:05.558Z,32.70
2023-05-24T06:38:41.286Z,33.66
2023-05-24T06:41:24.281Z,33.79
2023-05-24T06:44:03.617Z,34.55
2023-05-24T06:46:48.034Z,34.43
2023-05-24T06:49:28.801Z,34.58
2023-05-24T06:52:13.962Z,34.62
2023-05-24T06:54:44.266Z,35.32
2023-05-24T06:57:25.366Z,34.98
2023-05-24T07:00:11.359Z,34.91
2023-05-24T07:02:58.309Z,36.56
2023-05-24T07:05:38.926Z,34.79
2023-05-24T07:08:17.227Z,35.69
2023-05-24T07:11:01.266Z,35.75
2023-05-24T07:13:47.639Z,35.77
2023-05-24T07:16:30.658Z,36.20
2023-05-24T07:19:14.143Z,37.16
2023-05-24T07:21:51.811Z,36.86
2023-05-24T07:24:35.341Z,37.29
2023-05-24T07:27:14.276Z,37.37
2023-05-24T07:29:50.194Z,37.05
2023-05-24T07:32:33.215Z,36.14
2023-05-24T07:35:23.920Z,36.50
2023-05-24T07:38:02.747Z,36.50
2023-05-24T07:40:43.415Z,36.43
2023-05-24T07:43:21.746Z,36.83
2023-05-24T07:46:08.102Z,38.24
2023-05-24T07:48:57.736Z,37.47
2023-05-24T07:51:35.344Z,37.43
2023-05-24T07:54:13.741Z,37.20
2023-05-24T07:57:03.099Z,36.22
2023-05-24T07:59:37.269Z,37.13
2023-05-24T08:02:18.325Z,37.70
2023-05-24T08:04:58.607Z,37.46
2023-05-24T08:07:48.550Z,38.60
2023-05-24T08:10:34.954Z,38.71
2023-05-24T08:13:15.806Z,39.28
2023-05-24T08:15:59.553Z,39.45
2023-05-24T08:18:43.082Z,38.92
2023-05-24T08:21:27.971Z,38.51
2023-05-24T08:24:09.155Z,38.69
2023-05-24T08:26:59.154Z,38.54
2023-05-24T08:29:44.394Z,39.30
2023-05-24T08:32:25.320Z,38.35
2023-05-24T08:35:06.850Z,37.12
2023-05-24T08:37:49.720Z,37.28
2023-05-24T08:40:33.816Z,37.99
2023-05-24T08:43:18.289Z,37.99
2023-05-24T08:46:03.364Z,37.09
2023-05-24T08:48:44.598Z,37.45
2023-05-24T08:51:32.247Z,37.45
2023-05-24T08:54:11.433Z,37.08
2023-05-24T08:56:57.696Z,36.51
2023-05-24T08:59:40.306Z,37.66
2023-05-24T09:02:21.694Z,37.03
2023-05-24T09:05:05.282Z,37.33
2023-05-24T09:07:45.271Z,36.81
2023-05-24T09:10:53.858Z,36.77
2023-05-24T09:13:39.643Z,38.03
2023-05-24T09:16:22.890Z,38.57
2023-05-24T09:19:10.109Z,38.33
2023-05-24T09:21:53.722Z,39.55
2023-05-24T09:24:35.230Z,39.36
2023-05-24T09:27:18.033Z,39.38
2023-05-24T09:29:54.110Z,39.50
2023-05-24T09:32:35.370Z,38.46
2023-05-24T09:35:18.517Z,39.41
2023-05-24T09:38:03.599Z,38.61
2023-05-24T09:40:44.387Z,37.93
2023-05-24T09:43:20.275Z,39.42
2023-05-24T09:46:04.877Z,40.39
2023-05-24T09:48:59.854Z,40.20
2023-05-24T09:51:36.739Z,38.96
2023-05-24T09:54:23.908Z,38.44
2023-05-24T09:57:07.125Z,39.05
2023-05-24T09:59:46.852Z,40.32
2023-05-24T10:02:35.461Z,40.38
2023-05-24T10:05:22.274Z,39.83
2023-05-24T10:08:04.947Z,40.05
2023-05-24T10:10:52.082Z,41.25
2023-05-24T10:13:30.147Z,41.65
2023-05-24T10:16:16.951Z,41.18
2023-05-24T10:19:00.273Z,39.89
2023-05-24T10:21:40.420Z,40.46
2023-05-24T10:24:18.209Z,39.34
2023-05-24T10:26:58.998Z,39.82
2023-05-24T10:30:00.281Z,38.80
2023-05-24T10:32:32.778Z,38.94
2023-05-24T10:35:10.371Z,39.88
2023-05-24T10:37:49.945Z,39.43
2023-05-24T10:40:25.914Z,40.21
2023-05-24T10:43:10.395Z,41.05
2023-05-24T10:46:02.105Z,42.13
2023-05-24T10:48:44.037Z,40.90
2023-05-24T10:51:38.598Z,40.65
2023-05-24T10:54:25.198Z,40.64
2023-05-24T10:57:03.022Z,39.75
2023-05-24T10:59:41.903Z,39.06
2023-05-24T11:02:21.620Z,38.05
2023-05-24T11:05:14.450Z,37.76
2023-05-24T11:07:53.414Z,38.85
2023-05-24T11:10:32.375Z,38.21
2023-05-24T11:13:08.719Z,38.11
2023-05-24T11:15:55.457Z,38.46
2023-05-24T11:18:28.572Z,38.10
2023-05-24T11:21:10.745Z,39.71
2023-05-24T11:23:49.518Z,39.83
2023-05-24T11:26:34.177Z,40.65
2023-05-24T11:29:18.074Z,39.18
2023-05-24T11:32:17.128Z,39.08
2023-05-24T11:34:56.385Z,39.80
2023-05-24T11:37:46.090Z,39.92
2023-05-24T11:40:22.560Z,40.71
2023-05-24T11:43:01.722Z,40.37
2023-05-24T11:45:42.412Z,39.57
2023-05-24T11:48:22.035Z,40.65
2023-05-24T11:50:50.713Z,40.23
2023-05-24T11:53:45.750Z,39.44
2023-05-24T11:56:33.584Z,38.92
2023-05-24T11:59:43.308Z,38.79
2023-05-24T12:02:22.744Z,38.42
2023-05-24T12:05:18.514Z,38.81
2023-05-24T12:07:54.055Z,38.95
2023-05-24T12:10:32.826Z,39.59
2023-05-24T12:13:29.247Z,37.91
2023-05-24T12:16:11.927Z,39.25
2023-05-24T12:19:05.416Z,39.92
2023-05-24T12:21:47.246Z,40.52
2023-05-24T12:24:43.102Z,40.98
2023-05-24T12:27:25.129Z,41.11
2023-05-24T12:30:18.876Z,41.30
2023-05-24T12:33:00.961Z,41.28
2023-05-24T12:35:36.482Z,39.88
2023-05-24T12:38:23.279Z,41.83
2023-05-24T12:43:56.179Z,40.11
2023-05-24T12:46:44.221Z,40.81
2023-05-24T12:49:39.585Z,41.79
2023-05-24T12:52:32.645Z,42.00
2023-05-24T12:55:14.522Z,41.99
2023-05-24T12:58:00.073Z,42.10
2023-05-24T13:00:47.035Z,42.62
2023-05-24T13:03:38.518Z,41.46
2023-05-24T13:06:26.726Z,41.81
2023-05-24T13:09:35.226Z,43.06
2023-05-24T13:12:21.935Z,42.93
2023-05-24T13:15:06.336Z,43.35
2023-05-24T13:17:52.625Z,40.86
2023-05-24T13:20:41.471Z,43.04
2023-05-24T13:23:23.644Z,42.32
2023-05-24T13:26:09.630Z,41.82
2023-05-24T13:29:39.245Z,40.78
2023-05-24T13:32:23.058Z,42.18
2023-05-24T13:35:13.202Z,42.40
2023-05-24T13:37:59.437Z,41.56
2023-05-24T13:40:42.371Z,40.86
2023-05-24T13:43:26.231Z,41.36
2023-05-24T13:46:02.934Z,41.79
2023-05-24T13:48:54.827Z,41.23
2023-05-24T13:51:47.795Z,41.92
2023-05-24T13:54:37.325Z,41.51
2023-05-24T13:57:17.350Z,41.15
2023-05-24T14:00:06.770Z,40.95
2023-05-24T14:03:08.415Z,41.11
2023-05-24T14:06:10.782Z,41.94
2023-05-24T14:08:56.023Z,40.20
2023-05-24T14:11:40.426Z,41.29
2023-05-24T14:14:58.504Z,41.11
2023-05-24T14:17:37.883Z,41.55
2023-05-24T14:20:23.691Z,41.74
2023-05-24T14:23:03.686Z,41.44
2023-05-24T14:25:47.529Z,42.51
2023-05-24T14:28:33.562Z,42.95
2023-05-24T14:31:18.983Z,42.82
2023-05-24T14:34:00.272Z,42.88
2023-05-24T14:36:50.275Z,42.14
2023-05-24T14:39:32.147Z,41.72
2023-05-24T14:42:26.674Z,41.44
2023-05-24T14:45:15.306Z,41.69
2023-05-24T14:47:53.221Z,41.17
2023-05-24T14:50:41.207Z,41.88
2023-05-24T14:53:26.328Z,42.21
2023-05-24T14:56:15.238Z,41.57
2023-05-24T14:58:59.019Z,39.84
2023-05-24T15:01:36.862Z,40.85
2023-05-24T15:04:20.336Z,41.16
2023-05-24T15:07:01.529Z,40.91
2023-05-24T15:09:43.597Z,40.99
2023-05-24T15:12:27.369Z,41.15
2023-05-24T15:15:14.755Z,40.34
2023-05-24T15:18:06.126Z,41.01
2023-05-24T15:20:49.675Z,40.33
2023-05-24T15:23:33.850Z,39.52
2023-05-24T15:26:16.715Z,39.69
2023-05-24T15:29:04.004Z,39.72
2023-05-24T15:31:44.299Z,39.26
2023-05-24T15:34:23.664Z,39.96
2023-05-24T15:37:15.273Z,39.55
2023-05-24T15:39:45.290Z,38.30
2023-05-24T15:42:27.280Z,40.08
2023-05-24T15:45:21.020Z,39.03
2023-05-24T15:48:05.640Z,38.05
2023-05-24T15:51:09.303Z,38.97
2023-05-24T15:53:59.350Z,39.84
2023-05-24T15:56:45.652Z,40.31
2023-05-24T15:59:30.290Z,40.15
2023-05-24T16:02:11.420Z,40.44
2023-05-24T16:05:09.124Z,39.92
2023-05-24T16:07:45.282Z,40.15
2023-05-24T16:10:24.468Z,39.75
2023-05-24T16:13:15.930Z,40.55
2023-05-24T16:15:52.407Z,39.52
2023-05-24T16:18:37.277Z,41.09
2023-05-24T16:21:29.316Z,40.75
2023-05-24T16:24:20.225Z,40.73
2023-05-24T16:26:55.041Z,41.36
2023-05-24T16:29:43.551Z,41.56
2023-05-24T16:32:31.416Z,39.89
2023-05-24T16:35:23.255Z,39.51
2023-05-24T16:38:09.098Z,40.41
2023-05-24T16:40:55.251Z,40.11
2023-05-24T16:43:37.330Z,40.14
2023-05-24T16:46:19.937Z,39.70
2023-05-24T16:48:58.495Z,39.49
2023-05-24T16:51:42.105Z,39.26
2023-05-24T16:54:26.304Z,39.59
2023-05-24T16:57:11.083Z,39.61
2023-05-24T16:59:56.508Z,39.66
2023-05-24T17:02:38.407Z,39.58
2023-05-24T17:05:18.329Z,40.00
2023-05-24T17:08:02.467Z,40.23
2023-05-24T17:11:03.237Z,39.99
2023-05-24T17:13:49.332Z,39.07
2023-05-24T17:16:42.424Z,39.13
2023-05-24T17:19:39.865Z,39.08
2023-05-24T17:22:22.147Z,39.56
2023-05-24T17:25:04.364Z,38.26
2023-05-24T17:27:50.501Z,38.38
2023-05-24T17:30:33.884Z,39.04
2023-05-24T17:33:16.326Z,39.75
2023-05-24T17:36:12.210Z,39.76
2023-05-24T17:38:50.817Z,40.13
2023-05-24T17:41:38.237Z,39.90
2023-05-24T17:44:26.114Z,40.82
2023-05-24T17:47:17.386Z,40.53
2023-05-24T17:49:58.114Z,40.40
2023-05-24T17:52:39.482Z,40.10
2023-05-24T17:55:24.496Z,40.05
2023-05-24T17:58:15.832Z,39.76
2023-05-24T18:01:16.344Z,39.53
2023-05-24T18:03:55.311Z,39.59
2023-05-24T18:06:34.291Z,38.84
2023-05-24T18:09:19.015Z,38.87
2023-05-24T18:12:11.200Z,39.12
2023-05-24T18:15:01.087Z,39.36
2023-05-24T18:17:37.369Z,38.59
2023-05-24T18:20:26.845Z,38.48
2023-05-24T18:23:09.880Z,38.48
2023-05-24T18:26:02.436Z,37.71
2023-05-24T18:28:51.792Z,38.33
2023-05-24T18:31:25.040Z,38.39
2023-05-24T18:34:06.826Z,38.06
2023-05-24T18:36:53.220Z,37.51
2023-05-24T18:39:50.855Z,38.00
2023-05-24T18:42:31.402Z,37.72
2023-05-24T18:45:19.458Z,38.11
2023-05-24T18:48:08.314Z,38.13
2023-05-24T18:50:51.096Z,37.54
2023-05-24T18:53:35.472Z,37.45
2023-05-24T18:56:26.423Z,36.88
2023-05-24T18:59:20.884Z,36.69
2023-05-24T19:02:02.617Z,36.98
2023-05-24T19:04:54.557Z,36.80
2023-05-24T19:07:45.083Z,36.94
2023-05-24T19:10:26.302Z,36.61
2023-05-24T19:13:07.356Z,36.33
2023-05-24T19:16:04.431Z,36.52
2023-05-24T19:18:54.971Z,36.28
2023-05-24T19:22:02.489Z,36.24
2023-05-24T19:24:57.282Z,36.41
2023-05-24T19:27:47.763Z,36.08
2023-05-24T19:30:39.215Z,36.06
2023-05-24T19:33:25.268Z,35.79
2023-05-24T19:36:13.340Z,35.89
2023-05-24T19:38:51.506Z,36.36
2023-05-24T19:41:33.202Z,36.14
2023-05-24T19:44:22.985Z,36.18
2023-05-24T19:47:00.650Z,35.68
2023-05-24T19:49:47.446Z,35.78
2023-05-24T19:52:28.189Z,35.48
2023-05-24T19:55:17.671Z,35.59
2023-05-24T19:58:10.614Z,35.37
2023-05-24T20:00:49.485Z,35.28
2023-05-24T20:03:42.601Z,34.94
2023-05-24T20:06:34.428Z,34.95
2023-05-24T20:09:31.559Z,34.90
2023-05-24T20:12:26.124Z,34.74
2023-05-24T20:15:13.538Z,34.62
2023-05-24T20:17:55.091Z,34.67
2023-05-24T20:20:45.353Z,34.57
2023-05-24T20:23:37.107Z,34.48
2023-05-24T20:26:32.705Z,34.16
2023-05-24T20:29:21.434Z,34.30
2023-05-24T20:32:37.076Z,34.31
2023-05-24T20:35:19.523Z,34.40
2023-05-24T20:38:07.215Z,34.38
2023-05-24T20:41:05.628Z,34.33
2023-05-24T20:43:53.391Z,33.65
2023-05-24T20:46:50.237Z,33.55
2023-05-24T20:49:48.206Z,33.72
2023-05-24T20:52:48.437Z,33.59
2023-05-24T20:55:34.285Z,33.50
2023-05-24T20:58:25.394Z,32.77
2023-05-24T21:01:12.134Z,32.95
2023-05-24T21:04:10.571Z,32.68
2023-05-24T21:06:59.805Z,32.82
2023-05-24T21:09:37.767Z,32.82
2023-05-24T21:12:35.162Z,32.71
2023-05-24T21:18:21.320Z,32.89
2023-05-24T21:21:15.816Z,32.75
2023-05-24T21:23:59.401Z,32.62
2023-05-24T21:26:59.909Z,32.82
2023-05-24T21:29:44.150Z,32.97
2023-05-24T21:32:46.256Z,33.15
2023-05-24T21:35:41.905Z,32.67
2023-05-24T21:38:34.618Z,32.60
2023-05-24T21:41:24.465Z,32.75
2023-05-24T21:44:18.449Z,32.28
2023-05-24T21:47:05.020Z,32.76
2023-05-24T21:50:01.617Z,33.03
2023-05-24T21:53:08.448Z,32.81
2023-05-24T21:55:56.492Z,32.38
2023-05-24T21:58:36.302Z,32.17
2023-05-24T22:01:24.850Z,31.69
2023-05-24T22:04:12.348Z,31.74
2023-05-24T22:07:03.104Z,31.99
2023-05-24T22:09:54.351Z,31.78
2023-05-24T22:12:40.076Z,31.92
2023-05-24T22:15:26.666Z,31.24
2023-05-24T22:18:10.579Z,31.92
2023-05-24T22:20:59.144Z,31.86
2023-05-24T22:27:27.255Z,32.23
2023-05-24T22:30:32.682Z,32.56
2023-05-24T22:33:22.568Z,32.59
2023-05-24T22:36:09.777Z,32.68
2023-05-24T22:39:00.691Z,32.73
2023-05-24T22:41:49.629Z,32.51
2023-05-24T22:44:39.273Z,32.44
2023-05-24T22:50:49.301Z,32.68
2023-05-24T22:53:48.006Z,32.48
2023-05-24T22:56:59.912Z,32.31
2023-05-24T22:59:57.326Z,32.28
2023-05-24T23:02:57.259Z,32.21
2023-05-24T23:06:23.576Z,32.51
2023-05-24T23:09:08.310Z,32.79
2023-05-24T23:11:59.871Z,32.27
2023-05-24T23:15:01.539Z,31.67
2023-05-24T23:21:43.135Z,31.69
2023-05-24T23:24:42.620Z,31.78
2023-05-24T23:27:32.568Z,31.89
2023-05-24T23:30:20.727Z,31.63
2023-05-24T23:33:24.091Z,31.52
2023-05-24T23:36:19.479Z,31.82
2023-05-24T23:39:00.827Z,31.58
2023-05-24T23:41:51.311Z,31.84
2023-05-24T23:44:34.469Z,31.98
2023-05-24T23:47:31.011Z,32.37
2023-05-24T23:50:39.990Z,32.35
2023-05-24T23:53:42.521Z,32.40
2023-05-24T23:56:34.281Z,32.35
2023-05-24T23:59:05.640Z,32.85
